Time;durP1;ratioP1;P1;durP2;ratioP2;P2;SDS_P1;SDS_P2;PMS_P1;PMS_P2;Temp;Humidity;BMP_temperature;BMP_pressure;BME280_temperature;BME280_humidity;BME280_pressure;Samples;Min_cycle;Max_cycle;Signal;HPM_P1;HPM_P2
2022/10/25 00:02:37;;;;;;;7.83;5.20;;;13.60;1.00;;;;;;6387575;27;20502;-60
2022/10/25 00:05:53;;;;;;;8.93;5.80;;;13.60;1.00;;;;;;6379505;27;20750;-53
2022/10/25 00:08:56;;;;;;;11.40;7.87;;;13.60;1.00;;;;;;6383098;27;20238;-54
2022/10/25 00:11:58;;;;;;;5.77;5.37;;;13.60;1.00;;;;;;6388486;27;20230;-53
2022/10/25 00:15:01;;;;;;;6.57;5.03;;;13.50;1.00;;;;;;6378854;27;20238;-54
2022/10/25 00:18:05;;;;;;;8.13;4.90;;;13.60;1.00;;;;;;6386139;27;20231;-55
2022/10/25 00:21:09;;;;;;;5.73;5.23;;;13.60;1.00;;;;;;6389319;27;20698;-54
2022/10/25 00:24:13;;;;;;;9.17;5.63;;;13.60;1.00;;;;;;6363822;27;20235;-54
2022/10/25 00:27:17;;;;;;;6.43;5.60;;;13.60;1.00;;;;;;6372699;27;20239;-54
2022/10/25 00:30:20;;;;;;;7.27;5.13;;;13.50;1.00;;;;;;6379827;27;20223;-59
2022/10/25 00:33:22;;;;;;;6.43;5.00;;;13.60;1.00;;;;;;6362209;28;20246;-54
2022/10/25 00:36:27;;;;;;;7.63;4.60;;;13.50;1.00;;;;;;6361160;28;20227;-50
2022/10/25 00:39:30;;;;;;;6.83;5.60;;;13.50;1.00;;;;;;6379583;27;20392;-54
2022/10/25 00:42:37;;;;;;;10.17;6.03;;;13.40;1.00;;;;;;6387823;27;20235;-54
2022/10/25 00:45:40;;;;;;;6.43;5.57;;;13.40;1.00;;;;;;6387300;27;20245;-56
2022/10/25 00:48:49;;;;;;;7.73;6.10;;;13.40;1.00;;;;;;6387628;27;20637;-55
2022/10/25 00:51:57;;;;;;;11.77;5.80;;;13.40;1.00;;;;;;6381788;27;20239;-54
2022/10/25 00:55:02;;;;;;;6.00;5.37;;;13.40;1.00;;;;;;6383238;27;20754;-53
2022/10/25 00:58:08;;;;;;;13.57;7.27;;;13.40;1.00;;;;;;6387113;27;20230;-55
2022/10/25 01:01:13;;;;;;;10.20;7.23;;;13.30;1.00;;;;;;6392402;27;20230;-54
2022/10/25 01:04:20;;;;;;;9.50;7.40;;;13.30;1.00;;;;;;6367811;27;20288;-51
2022/10/25 01:07:25;;;;;;;11.30;6.70;;;13.20;1.00;;;;;;6373431;27;20230;-55
2022/10/25 01:10:29;;;;;;;8.00;6.60;;;13.30;1.00;;;;;;6391067;27;20304;-54
2022/10/25 01:13:32;;;;;;;11.33;6.70;;;13.30;1.00;;;;;;6369020;27;20235;-54
2022/10/25 01:16:47;;;;;;;6.53;5.97;;;13.30;1.00;;;;;;6391580;27;20226;-62
2022/10/25 01:20:14;;;;;;;8.20;5.93;;;13.30;1.00;;;;;;6382322;27;20243;-54
2022/10/25 01:23:41;;;;;;;7.60;5.73;;;13.30;1.00;;;;;;6382891;27;20242;-55
2022/10/25 01:27:06;;;;;;;5.87;5.33;;;13.30;1.00;;;;;;6367742;27;20250;-54
2022/10/25 01:30:16;;;;;;;5.40;5.10;;;13.40;1.00;;;;;;6393181;27;20219;-55
2022/10/25 01:33:24;;;;;;;10.87;5.97;;;13.40;1.00;;;;;;6378956;27;20417;-57
2022/10/25 01:36:37;;;;;;;8.73;5.70;;;13.40;1.00;;;;;;6363802;27;20235;-53
2022/10/25 01:39:44;;;;;;;6.60;5.97;;;13.40;1.00;;;;;;6344928;27;20246;-52
2022/10/25 01:42:58;;;;;;;10.00;6.67;;;13.50;1.00;;;;;;6384286;27;20332;-54
2022/10/25 01:46:09;;;;;;;6.87;5.70;;;13.50;1.00;;;;;;6389342;27;20318;-54
2022/10/25 01:49:17;;;;;;;6.30;5.70;;;13.50;1.00;;;;;;6382088;27;20239;-54
2022/10/25 01:52:22;;;;;;;6.77;5.33;;;13.60;1.00;;;;;;6363527;27;20716;-53
2022/10/25 01:55:31;;;;;;;12.10;5.50;;;13.60;1.00;;;;;;6365268;27;20334;-54
2022/10/25 01:58:43;;;;;;;7.47;6.10;;;13.60;1.00;;;;;;6378530;27;20227;-54
2022/10/25 02:01:59;;;;;;;5.93;4.93;;;13.50;1.00;;;;;;6390946;27;20266;-55
2022/10/25 02:05:16;;;;;;;7.80;4.77;;;13.50;1.00;;;;;;6372973;27;20341;-54
2022/10/25 02:08:27;;;;;;;6.47;5.03;;;13.60;1.00;;;;;;6380808;27;20496;-54
2022/10/25 02:11:31;;;;;;;9.00;5.60;;;13.60;1.00;;;;;;6392015;27;20231;-59
2022/10/25 02:14:37;;;;;;;6.77;5.10;;;13.60;1.00;;;;;;6351968;27;20231;-52
2022/10/25 02:17:45;;;;;;;5.27;4.87;;;13.60;1.00;;;;;;6390140;27;20262;-54
2022/10/25 02:20:55;;;;;;;5.97;4.83;;;13.60;1.00;;;;;;6387255;27;20226;-54
2022/10/25 02:24:03;;;;;;;5.17;4.77;;;13.70;1.00;;;;;;6364877;27;20239;-54
2022/10/25 02:27:08;;;;;;;5.97;5.37;;;13.70;1.00;;;;;;6372726;27;20310;-53
2022/10/25 02:30:11;;;;;;;4.73;4.33;;;13.70;1.00;;;;;;6378380;27;20238;-55
2022/10/25 02:33:16;;;;;;;5.17;4.60;;;13.70;1.00;;;;;;6363586;27;20246;-53
2022/10/25 02:36:22;;;;;;;6.50;4.83;;;13.70;1.00;;;;;;6365089;27;20239;-53
2022/10/25 02:39:27;;;;;;;5.07;4.60;;;13.70;1.00;;;;;;6384544;27;20227;-55
2022/10/25 02:42:33;;;;;;;8.10;4.83;;;13.70;1.00;;;;;;6366112;27;20270;-55
2022/10/25 02:45:36;;;;;;;8.23;5.10;;;13.70;1.00;;;;;;6365400;27;20409;-56
2022/10/25 02:48:39;;;;;;;6.17;4.90;;;13.70;1.00;;;;;;6363221;27;20342;-55
2022/10/25 02:51:44;;;;;;;5.03;4.57;;;13.80;1.00;;;;;;6363955;27;20242;-54
2022/10/25 02:54:46;;;;;;;5.90;4.80;;;13.80;1.00;;;;;;6389317;27;20305;-58
2022/10/25 02:57:49;;;;;;;5.80;5.30;;;13.80;1.00;;;;;;6388894;27;20238;-56
2022/10/25 03:00:52;;;;;;;6.13;4.97;;;13.80;1.00;;;;;;6393653;27;20235;-54
2022/10/25 03:03:55;;;;;;;8.10;5.37;;;13.80;1.00;;;;;;6389662;27;20242;-58
2022/10/25 03:06:59;;;;;;;4.93;4.50;;;13.80;1.00;;;;;;6387886;27;20237;-54
2022/10/25 03:10:02;;;;;;;5.47;4.50;;;13.90;1.00;;;;;;6389259;27;20594;-54
2022/10/25 03:13:07;;;;;;;4.77;4.37;;;13.90;1.00;;;;;;6390194;27;20245;-59
2022/10/25 03:16:10;;;;;;;9.37;4.73;;;13.90;1.00;;;;;;6368743;27;20235;-56
2022/10/25 03:19:13;;;;;;;6.80;4.80;;;13.90;1.00;;;;;;6362963;27;20310;-58
2022/10/25 03:22:17;;;;;;;5.60;4.40;;;13.90;1.00;;;;;;6364410;27;20734;-57
2022/10/25 03:25:20;;;;;;;6.90;4.63;;;13.90;1.00;;;;;;6363606;27;20231;-53
2022/10/25 03:28:23;;;;;;;10.03;4.60;;;13.90;1.00;;;;;;6383406;27;20235;-53
2022/10/25 03:31:26;;;;;;;8.80;5.13;;;13.90;1.00;;;;;;6381492;27;20231;-53
2022/10/25 03:34:29;;;;;;;7.37;4.53;;;14.00;1.00;;;;;;6376793;27;20237;-55
2022/10/25 03:37:33;;;;;;;8.33;4.40;;;14.00;1.00;;;;;;6385014;27;20633;-54
2022/10/25 03:40:36;;;;;;;9.40;4.77;;;14.00;1.00;;;;;;6387040;27;20237;-53
2022/10/25 03:43:40;;;;;;;6.63;4.43;;;14.00;1.00;;;;;;6382672;27;20239;-58
2022/10/25 03:46:45;;;;;;;4.43;3.87;;;14.00;1.00;;;;;;6388782;27;20230;-54
2022/10/25 03:49:48;;;;;;;8.70;4.40;;;14.00;1.00;;;;;;6388235;27;20238;-54
2022/10/25 03:52:52;;;;;;;5.43;3.80;;;14.00;1.00;;;;;;6387135;27;20242;-54
2022/10/25 03:55:59;;;;;;;4.17;3.63;;;14.10;1.00;;;;;;6388559;27;20255;-53
2022/10/25 03:59:05;;;;;;;5.63;4.20;;;14.10;1.00;;;;;;6385990;27;20226;-57
2022/10/25 04:02:08;;;;;;;8.37;4.30;;;14.10;1.00;;;;;;6383148;27;20226;-54
2022/10/25 04:05:11;;;;;;;5.70;4.27;;;14.00;1.00;;;;;;6385441;27;20358;-55
2022/10/25 04:08:15;;;;;;;5.13;4.07;;;14.00;1.00;;;;;;6378783;27;20364;-54
2022/10/25 04:11:25;;;;;;;7.10;4.23;;;14.10;1.00;;;;;;6387181;27;20598;-55
2022/10/25 04:14:28;;;;;;;9.70;3.80;;;14.00;1.00;;;;;;6381687;27;20742;-56
2022/10/25 04:17:30;;;;;;;7.83;3.93;;;14.00;1.00;;;;;;6383622;27;20237;-54
2022/10/25 04:20:33;;;;;;;7.10;3.77;;;14.00;1.00;;;;;;6385001;27;20222;-53
2022/10/25 04:23:38;;;;;;;5.27;3.53;;;14.10;1.00;;;;;;6381277;27;20230;-57
2022/10/25 04:26:41;;;;;;;3.67;3.37;;;14.10;1.00;;;;;;6373641;27;20242;-53
2022/10/25 04:29:43;;;;;;;4.03;3.10;;;14.00;1.00;;;;;;6382171;27;20238;-54
2022/10/25 04:32:53;;;;;;;5.57;3.23;;;14.00;1.00;;;;;;6382648;27;20249;-54
2022/10/25 04:35:56;;;;;;;4.87;3.10;;;14.00;1.00;;;;;;6380546;27;20241;-54
2022/10/25 04:39:00;;;;;;;4.43;3.57;;;13.90;1.00;;;;;;6387710;27;20227;-60
2022/10/25 04:42:05;;;;;;;6.30;3.40;;;13.90;1.00;;;;;;6390761;27;20773;-54
2022/10/25 04:45:08;;;;;;;4.03;3.63;;;13.90;1.00;;;;;;6392447;27;20227;-56
2022/10/25 04:48:11;;;;;;;4.57;3.80;;;13.90;1.00;;;;;;6391533;27;20241;-56
2022/10/25 04:51:15;;;;;;;3.57;3.33;;;13.80;1.00;;;;;;6383013;27;20496;-55
2022/10/25 04:54:19;;;;;;;4.13;3.70;;;13.80;1.00;;;;;;6391455;27;20237;-55
2022/10/25 04:57:24;;;;;;;3.83;3.60;;;13.80;1.00;;;;;;6389915;27;20238;-55
2022/10/25 05:00:28;;;;;;;3.40;3.10;;;13.80;1.00;;;;;;6388709;27;20261;-53
2022/10/25 05:03:31;;;;;;;4.43;3.70;;;13.80;1.00;;;;;;6389711;27;20625;-54
2022/10/25 05:06:34;;;;;;;4.17;3.87;;;13.70;1.00;;;;;;6389466;27;20618;-54
2022/10/25 05:09:38;;;;;;;3.57;3.27;;;13.70;1.00;;;;;;6388980;27;20238;-54
2022/10/25 05:12:47;;;;;;;4.37;3.97;;;13.70;1.00;;;;;;6383561;27;20228;-54
2022/10/25 05:15:54;;;;;;;7.30;3.50;;;13.70;1.00;;;;;;6389317;27;20234;-56
2022/10/25 05:18:57;;;;;;;4.30;3.90;;;13.70;1.00;;;;;;6389961;27;20234;-53
2022/10/25 05:22:00;;;;;;;5.07;3.73;;;13.60;1.00;;;;;;6390074;27;20234;-54
2022/10/25 05:25:05;;;;;;;7.33;3.23;;;13.60;1.00;;;;;;6389576;27;20234;-54
2022/10/25 05:28:08;;;;;;;3.67;3.30;;;13.60;1.00;;;;;;6387197;27;20231;-54
2022/10/25 05:31:14;;;;;;;4.20;3.50;;;13.50;1.00;;;;;;6389259;27;20235;-53
2022/10/25 05:34:17;;;;;;;5.87;3.67;;;13.50;1.00;;;;;;6387426;27;20234;-55
2022/10/25 05:37:20;;;;;;;4.07;3.37;;;13.50;1.00;;;;;;6387760;27;20238;-54
2022/10/25 05:40:24;;;;;;;8.83;3.87;;;13.50;1.00;;;;;;6386541;27;20242;-54
2022/10/25 05:43:28;;;;;;;4.60;3.70;;;13.40;1.00;;;;;;6389090;27;20241;-54
2022/10/25 05:46:31;;;;;;;5.60;3.37;;;13.40;1.00;;;;;;6383053;27;20449;-59
2022/10/25 05:49:38;;;;;;;4.90;3.40;;;13.40;1.00;;;;;;6386382;27;20238;-54
2022/10/25 05:52:42;;;;;;;3.67;3.00;;;13.50;1.00;;;;;;6383396;27;20699;-49
2022/10/25 05:55:46;;;;;;;3.07;2.87;;;13.60;1.00;;;;;;6380426;27;20231;-53
2022/10/25 05:58:57;;;;;;;5.17;3.70;;;13.60;1.00;;;;;;6389597;27;20271;-54
2022/10/25 06:02:00;;;;;;;6.27;3.40;;;13.60;1.00;;;;;;6383650;27;20329;-54
2022/10/25 06:05:03;;;;;;;7.90;3.90;;;13.70;1.00;;;;;;6382258;27;20237;-53
2022/10/25 06:08:06;;;;;;;6.80;3.67;;;13.70;1.00;;;;;;6389203;27;20232;-54
2022/10/25 06:11:12;;;;;;;3.60;3.30;;;13.70;1.00;;;;;;6390167;27;20707;-53
2022/10/25 06:14:15;;;;;;;3.57;3.37;;;13.70;1.00;;;;;;6384287;27;20476;-54
2022/10/25 06:17:19;;;;;;;9.07;3.47;;;13.80;1.00;;;;;;6388339;27;20234;-53
2022/10/25 06:20:23;;;;;;;5.20;3.40;;;13.90;1.00;;;;;;6388142;27;20242;-55
2022/10/25 06:23:27;;;;;;;7.27;3.07;;;13.80;1.00;;;;;;6385232;27;20238;-55
2022/10/25 06:26:32;;;;;;;5.50;3.33;;;13.80;1.00;;;;;;6388128;27;20629;-55
2022/10/25 06:29:35;;;;;;;4.87;2.93;;;13.90;1.00;;;;;;6388766;27;20815;-58
2022/10/25 06:32:37;;;;;;;4.63;3.13;;;13.90;1.00;;;;;;6385077;27;20506;-54
2022/10/25 06:35:40;;;;;;;3.10;2.80;;;13.90;1.00;;;;;;6387237;27;20624;-54
2022/10/25 06:38:44;;;;;;;5.73;3.20;;;14.00;1.00;;;;;;6382193;27;20495;-54
2022/10/25 06:41:48;;;;;;;4.07;3.23;;;14.00;1.00;;;;;;6351868;27;20238;-51
2022/10/25 06:44:50;;;;;;;7.73;4.90;;;13.90;1.00;;;;;;6388718;27;20238;-54
2022/10/25 06:47:53;;;;;;;7.83;4.67;;;13.90;1.00;;;;;;6387736;27;20230;-54
2022/10/25 06:51:02;;;;;;;4.57;3.37;;;14.00;1.00;;;;;;6386123;27;20243;-53
2022/10/25 06:54:08;;;;;;;3.03;2.93;;;14.00;1.00;;;;;;6387559;27;20227;-55
2022/10/25 06:57:12;;;;;;;4.67;2.80;;;14.00;1.00;;;;;;6386393;27;20242;-54
2022/10/25 07:00:15;;;;;;;5.67;3.00;;;14.10;1.00;;;;;;6380486;27;20234;-54
2022/10/25 07:03:18;;;;;;;3.20;3.00;;;14.20;1.00;;;;;;6387193;27;20227;-54
2022/10/25 07:06:23;;;;;;;4.20;3.10;;;14.20;1.00;;;;;;6386304;27;20222;-55
2022/10/25 07:09:28;;;;;;;3.60;2.80;;;14.30;1.00;;;;;;6382462;27;20719;-54
2022/10/25 07:12:36;;;;;;;4.40;3.17;;;14.30;1.00;;;;;;6382656;27;20234;-54
2022/10/25 07:15:39;;;;;;;4.20;2.83;;;14.40;1.00;;;;;;6386989;27;20237;-54
2022/10/25 07:18:44;;;;;;;4.63;3.90;;;14.40;1.00;;;;;;6380969;27;20238;-51
2022/10/25 07:21:47;;;;;;;8.00;3.73;;;14.30;1.00;;;;;;6378303;27;20609;-54
2022/10/25 07:24:50;;;;;;;6.10;3.30;;;14.30;1.00;;;;;;6386714;27;20450;-54
2022/10/25 07:27:54;;;;;;;4.20;3.23;;;14.30;1.00;;;;;;6385260;27;20231;-54
2022/10/25 07:30:57;;;;;;;5.43;3.83;;;14.40;1.00;;;;;;6390660;27;20234;-55
2022/10/25 07:34:02;;;;;;;5.40;3.60;;;14.40;1.00;;;;;;6388029;27;20230;-54
2022/10/25 07:37:09;;;;;;;7.43;3.67;;;14.40;1.00;;;;;;6384281;27;20226;-54
2022/10/25 07:40:12;;;;;;;6.97;3.40;;;14.40;1.00;;;;;;6385777;27;20227;-55
2022/10/25 07:43:16;;;;;;;4.27;3.30;;;14.40;1.00;;;;;;6387642;27;20249;-55
2022/10/25 07:46:19;;;;;;;4.40;3.53;;;14.50;1.00;;;;;;6386611;27;20231;-55
2022/10/25 07:49:22;;;;;;;4.60;3.10;;;14.60;1.00;;;;;;6383068;27;20222;-55
2022/10/25 07:52:24;;;;;;;6.30;3.20;;;14.60;1.00;;;;;;6386881;27;20619;-55
2022/10/25 07:55:29;;;;;;;6.60;4.03;;;14.70;1.00;;;;;;6386655;27;20222;-54
2022/10/25 07:58:43;;;;;;;6.67;3.37;;;14.80;1.00;;;;;;6385885;27;20223;-55
2022/10/25 08:01:46;;;;;;;4.93;3.03;;;14.90;1.00;;;;;;6382998;27;20235;-54
2022/10/25 08:04:49;;;;;;;6.37;3.77;;;14.90;1.00;;;;;;6386047;27;20329;-55
2022/10/25 08:07:56;;;;;;;4.10;3.43;;;14.80;1.00;;;;;;6383002;27;20299;-54
2022/10/25 08:11:02;;;;;;;3.30;3.00;;;14.80;1.00;;;;;;6381485;27;20238;-55
2022/10/25 08:14:06;;;;;;;5.40;3.70;;;14.70;1.00;;;;;;6386964;27;20237;-54
2022/10/25 08:17:10;;;;;;;4.37;3.13;;;14.70;1.00;;;;;;6376957;27;20230;-53
2022/10/25 08:20:13;;;;;;;3.63;3.03;;;14.60;1.00;;;;;;6382933;27;20745;-58
2022/10/25 08:23:16;;;;;;;4.57;3.07;;;14.40;1.00;;;;;;6386265;27;20615;-54
2022/10/25 08:26:23;;;;;;;7.93;3.30;;;14.50;1.00;;;;;;6385667;27;20298;-54
2022/10/25 08:29:27;;;;;;;3.57;2.73;;;14.40;1.00;;;;;;6381234;27;20238;-54
2022/10/25 08:32:33;;;;;;;6.23;3.17;;;14.50;1.00;;;;;;6383884;27;20235;-55
2022/10/25 08:35:36;;;;;;;3.10;2.90;;;14.60;1.00;;;;;;6385879;27;20727;-53
2022/10/25 08:38:40;;;;;;;4.60;2.90;;;14.50;1.00;;;;;;6375440;27;20265;-54
2022/10/25 08:41:50;;;;;;;3.20;2.90;;;14.50;1.00;;;;;;6368350;27;20231;-54
2022/10/25 08:45:02;;;;;;;3.70;2.80;;;14.50;1.00;;;;;;6386284;27;20235;-54
2022/10/25 08:48:13;;;;;;;3.70;3.00;;;14.50;1.00;;;;;;6385593;27;20241;-57
2022/10/25 08:51:25;;;;;;;7.53;3.43;;;14.60;1.00;;;;;;6379516;27;20235;-54
2022/10/25 08:54:31;;;;;;;5.47;3.50;;;14.60;1.00;;;;;;6386275;27;20237;-53
2022/10/25 08:57:39;;;;;;;10.17;3.60;;;14.60;1.00;;;;;;6383640;27;20222;-54
2022/10/25 09:00:46;;;;;;;8.40;3.10;;;14.70;1.00;;;;;;6385650;27;20238;-53
2022/10/25 09:03:49;;;;;;;3.90;3.50;;;14.70;1.00;;;;;;6375017;27;20251;-55
2022/10/25 09:07:03;;;;;;;4.87;3.57;;;14.70;1.00;;;;;;6384157;27;20230;-55
2022/10/25 09:10:18;;;;;;;4.97;3.50;;;14.60;1.00;;;;;;6380405;27;20230;-55
2022/10/25 09:13:32;;;;;;;6.53;3.73;;;14.80;1.00;;;;;;6385875;27;20231;-54
2022/10/25 09:16:49;;;;;;;3.63;3.27;;;14.90;1.00;;;;;;6381703;27;20714;-56
2022/10/25 09:20:04;;;;;;;8.00;4.07;;;15.00;1.00;;;;;;6383930;27;20619;-54
2022/10/25 09:23:16;;;;;;;6.00;3.47;;;15.00;1.00;;;;;;6386602;27;20231;-61
2022/10/25 09:26:31;;;;;;;11.07;4.00;;;15.00;1.00;;;;;;6385006;27;20874;-54
2022/10/25 09:29:37;;;;;;;19.13;4.20;;;15.00;1.00;;;;;;6390059;27;20242;-54
2022/10/25 09:32:45;;;;;;;4.67;3.30;;;15.10;1.00;;;;;;6391651;27;20397;-55
2022/10/25 09:35:52;;;;;;;8.80;3.70;;;15.10;1.00;;;;;;6384185;27;20235;-54
2022/10/25 09:38:58;;;;;;;6.37;3.57;;;15.20;1.00;;;;;;6380797;27;20227;-54
2022/10/25 09:42:03;;;;;;;5.83;3.53;;;15.20;1.00;;;;;;6383771;27;20239;-54
2022/10/25 09:45:15;;;;;;;4.57;3.27;;;15.20;1.00;;;;;;6387437;27;20707;-55
2022/10/25 09:48:25;;;;;;;4.33;3.43;;;15.30;1.00;;;;;;6387906;27;20264;-54
2022/10/25 09:51:35;;;;;;;6.77;3.60;;;15.40;1.00;;;;;;6387148;27;20239;-55
2022/10/25 09:54:49;;;;;;;8.27;4.03;;;15.60;1.00;;;;;;6387277;27;20233;-54
2022/10/25 09:57:52;;;;;;;6.47;3.17;;;15.70;1.00;;;;;;6377906;27;20242;-57
2022/10/25 10:00:58;;;;;;;6.60;3.40;;;15.70;1.00;;;;;;6383601;27;20699;-54
2022/10/25 10:04:25;;;;;;;7.87;3.30;;;15.80;1.00;;;;;;6385049;27;20243;-53
2022/10/25 10:07:33;;;;;;;9.00;3.20;;;15.80;1.00;;;;;;6383378;27;20227;-54
2022/10/25 10:10:37;;;;;;;3.37;3.07;;;15.70;1.00;;;;;;6385726;27;20231;-55
2022/10/25 10:13:44;;;;;;;4.77;3.43;;;15.70;1.00;;;;;;6387157;27;20234;-55
2022/10/25 10:16:49;;;;;;;5.03;3.70;;;15.80;1.00;;;;;;6385509;27;20241;-61
2022/10/25 10:20:11;;;;;;;7.20;3.77;;;15.90;1.00;;;;;;6381349;27;20234;-54
2022/10/25 10:23:14;;;;;;;5.17;3.60;;;15.70;1.00;;;;;;6388677;27;20238;-54
2022/10/25 10:26:24;;;;;;;6.73;3.47;;;15.70;1.00;;;;;;6388676;27;20286;-54
2022/10/25 10:29:28;;;;;;;5.90;4.10;;;15.70;1.00;;;;;;6385205;27;20396;-54
2022/10/25 10:32:34;;;;;;;7.77;3.70;;;15.70;1.00;;;;;;6386006;27;20612;-54
2022/10/25 10:35:38;;;;;;;6.47;3.30;;;15.70;1.00;;;;;;6385824;27;20227;-56
2022/10/25 10:38:41;;;;;;;7.97;3.73;;;15.70;1.00;;;;;;6385508;27;20223;-54
2022/10/25 10:41:59;;;;;;;4.53;3.53;;;15.60;1.00;;;;;;6381928;27;20318;-55
2022/10/25 10:45:14;;;;;;;7.03;3.67;;;15.60;1.00;;;;;;6377819;27;20241;-54
2022/10/25 10:48:35;;;;;;;3.60;3.23;;;15.70;1.00;;;;;;6386762;27;20227;-56
2022/10/25 10:51:46;;;;;;;6.17;3.43;;;15.70;1.00;;;;;;6384327;27;20263;-55
2022/10/25 10:54:51;;;;;;;9.27;3.50;;;15.70;1.00;;;;;;6378696;27;20243;-51
2022/10/25 10:58:01;;;;;;;4.50;3.03;;;15.70;1.00;;;;;;6384080;27;20238;-55
2022/10/25 11:01:07;;;;;;;4.27;4.03;;;15.70;1.00;;;;;;6387671;27;20487;-57
2022/10/25 11:04:10;;;;;;;7.67;3.30;;;15.70;1.00;;;;;;6386112;27;20718;-56
2022/10/25 11:07:24;;;;;;;6.57;3.80;;;15.80;1.00;;;;;;6387617;27;20230;-55
2022/10/25 11:10:29;;;;;;;3.87;3.33;;;16.00;1.00;;;;;;6386587;27;20238;-55
2022/10/25 11:13:32;;;;;;;3.70;3.40;;;16.10;1.00;;;;;;6354383;27;20227;-55
2022/10/25 11:16:52;;;;;;;5.33;3.43;;;16.20;1.00;;;;;;6387204;27;20250;-57
2022/10/25 11:20:07;;;;;;;7.53;3.20;;;16.40;1.00;;;;;;6379844;27;20235;-55
2022/10/25 11:23:18;;;;;;;8.50;3.87;;;16.60;1.00;;;;;;6380153;27;20392;-53
2022/10/25 11:26:31;;;;;;;4.10;3.50;;;16.80;1.00;;;;;;6383888;27;20226;-55
2022/10/25 11:30:02;;;;;;;7.80;3.77;;;16.80;1.00;;;;;;6385840;27;20235;-56
2022/10/25 11:33:36;;;;;;;4.53;3.43;;;16.70;1.00;;;;;;6381207;27;20234;-56
2022/10/25 11:37:06;;;;;;;6.33;3.13;;;16.60;1.00;;;;;;6366172;27;20805;-55
2022/10/25 11:40:16;;;;;;;4.93;3.67;;;16.70;1.00;;;;;;6375524;27;20462;-55
2022/10/25 11:43:33;;;;;;;5.00;3.40;;;16.70;1.00;;;;;;6385959;27;20235;-54
2022/10/25 11:46:45;;;;;;;8.37;3.57;;;16.70;1.00;;;;;;6385729;27;20702;-55
2022/10/25 11:49:58;;;;;;;3.90;3.50;;;16.80;1.00;;;;;;6379368;27;20430;-55
2022/10/25 11:53:25;;;;;;;5.90;3.37;;;16.90;1.00;;;;;;6385977;27;20230;-58
2022/10/25 11:56:38;;;;;;;4.83;3.60;;;17.00;1.00;;;;;;6384649;27;20246;-55
2022/10/25 11:59:49;;;;;;;5.67;3.53;;;17.10;1.00;;;;;;6386832;27;20231;-54
2022/10/25 12:03:07;;;;;;;7.00;3.60;;;17.10;1.00;;;;;;6379783;27;20719;-55
2022/10/25 12:06:18;;;;;;;7.87;3.60;;;17.20;1.00;;;;;;6382353;27;20724;-56
2022/10/25 12:09:31;;;;;;;5.10;3.30;;;17.20;1.00;;;;;;6385703;27;20227;-54
2022/10/25 12:12:44;;;;;;;4.53;3.40;;;17.20;1.00;;;;;;6385012;27;20257;-55
2022/10/25 12:15:50;;;;;;;3.23;2.93;;;17.30;1.00;;;;;;6386332;27;20226;-55
2022/10/25 12:19:02;;;;;;;6.23;3.70;;;17.60;1.00;;;;;;6381512;27;20242;-55
2022/10/25 12:22:11;;;;;;;4.50;3.30;;;17.80;1.00;;;;;;6382736;27;20246;-54
2022/10/25 12:25:20;;;;;;;4.37;2.87;;;17.90;1.00;;;;;;6386105;27;20234;-55
2022/10/25 12:28:28;;;;;;;3.87;3.27;;;17.90;1.00;;;;;;6385759;27;20713;-59
2022/10/25 12:31:36;;;;;;;5.50;3.20;;;18.00;1.00;;;;;;6379442;27;20233;-55
2022/10/25 12:34:42;;;;;;;6.23;3.40;;;18.10;1.00;;;;;;6384653;27;20460;-55
2022/10/25 12:37:52;;;;;;;4.03;3.00;;;18.40;1.00;;;;;;6386108;27;20883;-55
2022/10/25 12:41:07;;;;;;;7.00;3.10;;;18.50;1.00;;;;;;6372612;27;20302;-55
2022/10/25 12:44:28;;;;;;;6.50;3.50;;;18.50;1.00;;;;;;6381429;27;20226;-55
2022/10/25 12:47:47;;;;;;;7.43;3.37;;;18.70;1.00;;;;;;6381301;27;20257;-54
2022/10/25 12:51:01;;;;;;;8.30;3.50;;;18.50;1.00;;;;;;6384697;27;20237;-55
2022/10/25 12:54:28;;;;;;;5.07;2.90;;;18.30;1.00;;;;;;6380923;27;20298;-54
2022/10/25 12:57:41;;;;;;;4.17;3.07;;;17.90;1.00;;;;;;6389193;27;20234;-54
2022/10/25 13:01:16;;;;;;;3.40;3.10;;;17.70;1.00;;;;;;6388791;27;20226;-54
2022/10/25 13:04:37;;;;;;;5.47;3.27;;;17.50;1.00;;;;;;6357006;27;20238;-55
2022/10/25 13:07:40;;;;;;;6.63;3.33;;;17.30;1.00;;;;;;6387944;27;20246;-56
2022/10/25 13:10:49;;;;;;;8.00;3.57;;;17.20;1.00;;;;;;6381125;27;20317;-55
2022/10/25 13:13:53;;;;;;;7.20;3.17;;;17.30;1.00;;;;;;6378968;27;20246;-55
2022/10/25 13:17:33;;;;;;;6.83;3.60;;;17.40;1.00;;;;;;6383263;27;20234;-55
2022/10/25 13:20:51;;;;;;;3.43;3.17;;;17.50;1.00;;;;;;6388359;27;20227;-55
2022/10/25 13:23:59;;;;;;;3.10;2.87;;;17.50;1.00;;;;;;6389107;27;20245;-55
2022/10/25 13:27:22;;;;;;;4.67;3.30;;;17.40;1.00;;;;;;6381362;27;20603;-55
2022/10/25 13:30:29;;;;;;;5.47;3.30;;;17.40;1.00;;;;;;6388898;27;20218;-54
2022/10/25 13:33:34;;;;;;;4.73;3.60;;;17.40;1.00;;;;;;6383201;27;20234;-54
2022/10/25 13:36:50;;;;;;;7.33;3.47;;;17.30;1.00;;;;;;6386446;27;20659;-55
2022/10/25 13:39:54;;;;;;;7.47;3.67;;;17.20;1.00;;;;;;6389335;27;20798;-55
2022/10/25 13:43:05;;;;;;;6.03;3.43;;;17.10;1.00;;;;;;6383833;27;20231;-62
2022/10/25 13:46:11;;;;;;;5.83;3.50;;;16.90;1.00;;;;;;6383422;27;20393;-55
2022/10/25 13:49:33;;;;;;;5.13;3.57;;;16.80;1.00;;;;;;6384776;27;20615;-55
2022/10/25 13:52:43;;;;;;;3.67;3.37;;;16.80;1.00;;;;;;6386304;27;20231;-55
2022/10/25 13:55:53;;;;;;;4.70;4.00;;;16.70;1.00;;;;;;6387805;27;20727;-55
2022/10/25 13:58:57;;;;;;;5.27;3.30;;;16.60;1.00;;;;;;6382331;27;20312;-55
2022/10/25 14:02:15;;;;;;;6.53;3.30;;;16.60;1.00;;;;;;6353342;27;20239;-54
2022/10/25 14:06:02;;;;;;;5.23;3.30;;;16.50;1.00;;;;;;6387861;27;20230;-56
2022/10/25 14:09:25;;;;;;;4.07;2.70;;;16.40;1.00;;;;;;6381277;27;20705;-53
2022/10/25 14:12:30;;;;;;;3.27;3.03;;;16.30;1.00;;;;;;6388412;27;20253;-55
2022/10/25 14:15:46;;;;;;;3.53;3.23;;;16.20;1.00;;;;;;6384572;27;20238;-55
2022/10/25 14:18:51;;;;;;;5.23;3.07;;;16.10;1.00;;;;;;6386409;27;20239;-56
2022/10/25 14:21:55;;;;;;;6.47;3.50;;;16.00;1.00;;;;;;6387536;27;20250;-55
2022/10/25 14:25:03;;;;;;;3.47;3.37;;;15.90;1.00;;;;;;6387883;27;20235;-55
2022/10/25 14:28:11;;;;;;;3.50;3.20;;;16.00;1.00;;;;;;6381789;27;20235;-54
2022/10/25 14:31:18;;;;;;;4.97;3.67;;;15.90;1.00;;;;;;6385741;27;20233;-55
2022/10/25 14:34:28;;;;;;;7.37;3.50;;;15.80;1.00;;;;;;6386724;27;20240;-55
2022/10/25 14:37:31;;;;;;;4.43;3.37;;;15.80;1.00;;;;;;6380479;27;20234;-56
2022/10/25 14:40:35;;;;;;;4.80;3.53;;;15.70;1.00;;;;;;6385426;27;20233;-54
2022/10/25 14:43:39;;;;;;;3.77;3.47;;;15.70;1.00;;;;;;6381975;27;20711;-56
2022/10/25 14:46:44;;;;;;;4.13;3.73;;;15.70;1.00;;;;;;6377550;27;20231;-55
2022/10/25 14:49:47;;;;;;;5.33;3.77;;;15.70;1.00;;;;;;6386806;27;20624;-55
2022/10/25 14:52:51;;;;;;;3.97;3.63;;;15.70;1.00;;;;;;6378634;27;20246;-55
2022/10/25 14:55:57;;;;;;;4.33;3.93;;;15.60;1.00;;;;;;6385951;27;20245;-55
2022/10/25 14:59:01;;;;;;;6.43;3.90;;;15.60;1.00;;;;;;6383753;27;20239;-56
2022/10/25 15:02:09;;;;;;;4.47;3.97;;;15.60;1.00;;;;;;6385705;27;20239;-55
2022/10/25 15:05:18;;;;;;;3.83;3.63;;;15.50;1.00;;;;;;6385788;27;20231;-54
2022/10/25 15:08:25;;;;;;;5.83;3.90;;;15.50;1.00;;;;;;6386263;27;20226;-57
2022/10/25 15:11:31;;;;;;;4.37;4.07;;;15.40;1.00;;;;;;6386653;27;20726;-59
2022/10/25 15:14:35;;;;;;;4.43;3.90;;;15.30;1.00;;;;;;6383527;27;20723;-55
2022/10/25 15:17:38;;;;;;;4.40;3.90;;;15.30;1.00;;;;;;6383129;27;20234;-55
2022/10/25 15:20:41;;;;;;;5.90;4.00;;;15.30;1.00;;;;;;6386288;27;20235;-54
2022/10/25 15:24:02;;;;;;;4.63;4.33;;;15.20;1.00;;;;;;6380587;27;20499;-56
2022/10/25 15:27:26;;;;;;;4.30;4.00;;;15.10;1.00;;;;;;6373482;27;20237;-55
2022/10/25 15:30:36;;;;;;;3.97;3.63;;;15.10;1.00;;;;;;6386112;27;20581;-55
2022/10/25 15:33:40;;;;;;;5.17;4.67;;;15.00;1.00;;;;;;6379142;27;20924;-55
2022/10/25 15:36:44;;;;;;;4.37;3.93;;;15.00;1.00;;;;;;6385528;27;20234;-55
2022/10/25 15:39:49;;;;;;;4.47;4.27;;;14.90;1.00;;;;;;6381693;27;20568;-54
2022/10/25 15:42:53;;;;;;;4.93;4.10;;;14.90;1.00;;;;;;6385940;27;20251;-55
2022/10/25 15:45:56;;;;;;;7.73;4.63;;;14.90;1.00;;;;;;6385698;27;20253;-55
2022/10/25 15:49:00;;;;;;;7.07;4.30;;;14.80;1.00;;;;;;6376672;27;20234;-55
2022/10/25 15:52:03;;;;;;;4.97;4.27;;;14.80;1.00;;;;;;6384967;27;20751;-55
2022/10/25 15:55:18;;;;;;;5.60;4.57;;;14.70;1.00;;;;;;6385619;27;20520;-54
2022/10/25 15:58:22;;;;;;;7.80;4.60;;;14.70;1.00;;;;;;6382167;27;20367;-55
2022/10/25 16:01:25;;;;;;;4.93;4.67;;;14.70;1.00;;;;;;6385195;27;20361;-55
2022/10/25 16:04:28;;;;;;;4.97;4.43;;;14.60;1.00;;;;;;6382128;27;20226;-54
2022/10/25 16:07:30;;;;;;;4.83;4.43;;;14.60;1.00;;;;;;6381775;27;20469;-55
2022/10/25 16:10:33;;;;;;;5.90;5.20;;;14.60;1.00;;;;;;6380884;27;20235;-54
2022/10/25 16:13:38;;;;;;;7.27;5.80;;;14.60;1.00;;;;;;6383947;27;20286;-55
2022/10/25 16:16:42;;;;;;;5.37;4.97;;;14.50;1.00;;;;;;6384941;27;20219;-54
2022/10/25 16:19:45;;;;;;;6.20;5.10;;;14.50;1.00;;;;;;6385160;27;20417;-56
2022/10/25 16:22:50;;;;;;;5.30;4.37;;;14.50;1.00;;;;;;6377909;27;20401;-56
2022/10/25 16:25:55;;;;;;;5.60;5.10;;;14.40;1.00;;;;;;6385585;27;20227;-56
2022/10/25 16:28:59;;;;;;;5.10;4.83;;;14.30;1.00;;;;;;6383465;27;20410;-55
2022/10/25 16:32:02;;;;;;;6.93;5.50;;;14.20;1.00;;;;;;6381599;27;20251;-56